createdAt,value
2023-04-30T00:02:02.942Z,13.88
2023-04-30T00:04:29.684Z,13.91
2023-04-30T00:06:56.703Z,13.92
2023-04-30T00:09:23.409Z,13.89
2023-04-30T00:11:50.492Z,13.89
2023-04-30T00:14:17.235Z,13.90
2023-04-30T00:16:43.990Z,13.89
2023-04-30T00:19:10.921Z,13.89
2023-04-30T00:21:37.708Z,13.87
2023-04-30T00:24:05.255Z,13.84
2023-04-30T00:26:31.959Z,13.86
2023-04-30T00:28:58.795Z,13.86
2023-04-30T00:31:25.608Z,13.84
2023-04-30T00:33:52.332Z,13.88
2023-04-30T00:36:19.400Z,13.85
2023-04-30T00:38:46.140Z,13.83
2023-04-30T00:41:13.697Z,13.87
2023-04-30T00:43:40.434Z,13.81
2023-04-30T00:46:07.206Z,13.82
2023-04-30T00:48:34.237Z,13.84
2023-04-30T00:51:03.241Z,13.82
2023-04-30T00:53:30.306Z,13.82
2023-04-30T00:55:57.710Z,13.77
2023-04-30T00:58:26.138Z,13.79
2023-04-30T01:00:53.363Z,13.77
2023-04-30T01:03:20.606Z,13.75
2023-04-30T01:05:47.384Z,13.75
2023-04-30T01:08:14.602Z,13.73
2023-04-30T01:10:46.443Z,13.71
2023-04-30T01:13:19.463Z,13.65
2023-04-30T01:15:52.142Z,13.62
2023-04-30T01:18:28.992Z,13.59
2023-04-30T01:21:00.153Z,13.65
2023-04-30T01:23:38.236Z,13.65
2023-04-30T01:26:15.804Z,13.66
2023-04-30T01:28:46.504Z,13.64
2023-04-30T01:31:19.167Z,13.59
2023-04-30T01:33:45.955Z,13.53
2023-04-30T01:36:34.072Z,13.51
2023-04-30T01:39:21.318Z,13.56
2023-04-30T01:42:11.356Z,13.50
2023-04-30T01:44:55.460Z,13.50
2023-04-30T01:47:28.458Z,13.52
2023-04-30T01:50:06.268Z,13.51
2023-04-30T01:52:42.272Z,13.48
2023-04-30T01:55:12.683Z,13.44
2023-04-30T01:57:40.591Z,13.39
2023-04-30T02:00:11.018Z,13.38
2023-04-30T02:02:40.361Z,13.39
2023-04-30T02:05:07.773Z,13.38
2023-04-30T02:07:42.639Z,13.37
2023-04-30T02:10:10.224Z,13.38
2023-04-30T02:12:37.056Z,13.35
2023-04-30T02:15:05.137Z,13.32
2023-04-30T02:17:32.593Z,13.32
2023-04-30T02:19:59.772Z,13.29
2023-04-30T02:22:26.857Z,13.27
2023-04-30T02:24:55.770Z,13.24
2023-04-30T02:27:23.695Z,13.14
2023-04-30T02:29:50.488Z,13.15
2023-04-30T02:32:17.887Z,13.19
2023-04-30T02:34:45.022Z,13.23
2023-04-30T02:37:11.890Z,13.25
2023-04-30T02:39:38.569Z,13.22
2023-04-30T02:42:06.940Z,13.10
2023-04-30T02:44:34.145Z,13.13
2023-04-30T02:47:02.580Z,13.07
2023-04-30T02:49:29.753Z,13.06
2023-04-30T02:51:56.460Z,13.09
2023-04-30T02:54:23.277Z,13.12
2023-04-30T02:56:50.029Z,13.07
2023-04-30T02:59:16.772Z,13.04
2023-04-30T03:01:43.543Z,13.04
2023-04-30T03:04:10.547Z,13.09
2023-04-30T03:06:37.271Z,12.89
2023-04-30T03:09:04.080Z,13.00
2023-04-30T03:11:30.922Z,13.01
2023-04-30T03:13:57.730Z,13.00
2023-04-30T03:16:24.457Z,13.04
2023-04-30T03:18:51.372Z,13.03
2023-04-30T03:21:18.269Z,13.01
2023-04-30T03:23:45.023Z,13.07
2023-04-30T03:26:12.485Z,13.07
2023-04-30T03:28:39.209Z,13.11
2023-04-30T03:31:05.990Z,13.13
2023-04-30T03:33:33.416Z,13.13
2023-04-30T03:36:00.472Z,13.14
2023-04-30T03:38:27.276Z,13.13
2023-04-30T03:40:54.045Z,13.10
2023-04-30T03:43:21.056Z,13.10
2023-04-30T03:45:47.993Z,13.10
2023-04-30T03:48:14.816Z,13.10
2023-04-30T03:50:41.572Z,13.13
2023-04-30T03:53:08.304Z,13.11
2023-04-30T03:55:35.762Z,13.06
2023-04-30T03:58:02.916Z,13.07
2023-04-30T04:00:29.642Z,13.06
2023-04-30T04:02:58.302Z,13.03
2023-04-30T04:05:25.199Z,13.02
2023-04-30T04:07:51.899Z,13.03
2023-04-30T04:10:18.878Z,13.03
2023-04-30T04:12:46.530Z,13.01
2023-04-30T04:15:13.750Z,12.95
2023-04-30T04:17:40.634Z,12.97
2023-04-30T04:20:08.488Z,12.97
2023-04-30T04:22:36.500Z,13.00
2023-04-30T04:25:03.277Z,13.03
2023-04-30T04:27:32.378Z,13.00
2023-04-30T04:29:59.067Z,13.01
2023-04-30T04:32:26.095Z,13.01
2023-04-30T04:34:54.443Z,13.02
2023-04-30T04:37:21.343Z,13.02
2023-04-30T04:39:48.086Z,13.03
2023-04-30T04:42:18.154Z,13.01
2023-04-30T04:44:44.934Z,13.01
2023-04-30T04:47:13.018Z,13.01
2023-04-30T04:49:40.178Z,13.01
2023-04-30T04:52:07.273Z,13.02
2023-04-30T04:54:34.667Z,13.01
2023-04-30T04:57:03.234Z,13.06
2023-04-30T04:59:30.128Z,13.08
2023-04-30T05:01:56.963Z,13.11
2023-04-30T05:04:23.677Z,13.15
2023-04-30T05:06:50.508Z,13.22
2023-04-30T05:09:17.718Z,13.24
2023-04-30T05:11:46.360Z,13.30
2023-04-30T05:14:13.071Z,13.36
2023-04-30T05:16:40.407Z,13.39
2023-04-30T05:19:09.895Z,13.38
2023-04-30T05:21:37.193Z,13.45
2023-04-30T05:24:04.489Z,13.51
2023-04-30T05:26:31.212Z,13.52
2023-04-30T05:28:58.115Z,13.57
2023-04-30T05:31:24.882Z,13.60
2023-04-30T05:33:52.205Z,13.64
2023-04-30T05:36:18.940Z,13.66
2023-04-30T05:38:45.666Z,13.72
2023-04-30T05:41:13.364Z,13.79
2023-04-30T05:43:40.076Z,13.82
2023-04-30T05:46:06.962Z,13.96
2023-04-30T05:48:33.779Z,13.96
2023-04-30T05:51:00.499Z,14.02
2023-04-30T05:53:28.436Z,14.01
2023-04-30T05:55:55.169Z,14.02
2023-04-30T05:58:21.902Z,13.92
2023-04-30T06:00:52.291Z,13.88
2023-04-30T06:03:19.312Z,13.94
2023-04-30T06:05:47.440Z,13.91
2023-04-30T06:08:14.293Z,13.93
2023-04-30T06:10:41.029Z,13.97
2023-04-30T06:13:07.754Z,14.07
2023-04-30T06:15:34.510Z,14.16
2023-04-30T06:18:01.392Z,14.19
2023-04-30T06:20:28.309Z,14.26
2023-04-30T06:22:55.411Z,14.31
2023-04-30T06:25:22.381Z,14.29
2023-04-30T06:27:49.137Z,14.33
2023-04-30T06:30:16.104Z,14.37
2023-04-30T06:32:42.833Z,14.40
2023-04-30T06:35:09.810Z,14.47
2023-04-30T06:37:38.272Z,14.42
2023-04-30T06:40:06.688Z,14.47
2023-04-30T06:42:36.822Z,14.46
2023-04-30T06:45:04.292Z,14.49
2023-04-30T06:47:38.554Z,14.56
2023-04-30T06:50:05.899Z,14.55
2023-04-30T06:52:32.630Z,14.62
2023-04-30T06:54:59.299Z,14.71
2023-04-30T06:57:26.020Z,14.68
2023-04-30T06:59:53.138Z,14.75
2023-04-30T07:02:22.025Z,14.91
2023-04-30T07:04:49.598Z,14.80
2023-04-30T07:07:16.401Z,14.83
2023-04-30T07:09:43.107Z,14.89
2023-04-30T07:12:11.313Z,15.00
2023-04-30T07:14:38.044Z,15.22
2023-04-30T07:17:04.859Z,15.22
2023-04-30T07:19:32.757Z,15.23
2023-04-30T07:21:59.581Z,15.16
2023-04-30T07:24:26.368Z,15.10
2023-04-30T07:26:53.129Z,15.09
2023-04-30T07:29:20.104Z,15.07
2023-04-30T07:31:46.992Z,15.24
2023-04-30T07:34:13.742Z,15.27
2023-04-30T07:36:40.608Z,15.25
2023-04-30T07:39:08.211Z,15.37
2023-04-30T07:41:35.012Z,15.45
2023-04-30T07:44:01.740Z,15.48
2023-04-30T07:46:28.546Z,15.44
2023-04-30T07:48:55.354Z,15.50
2023-04-30T07:51:22.633Z,15.52
2023-04-30T07:53:49.333Z,15.53
2023-04-30T07:56:16.195Z,15.61
2023-04-30T07:58:43.258Z,15.74
2023-04-30T08:01:10.000Z,15.83
2023-04-30T08:03:36.891Z,15.87
2023-04-30T08:06:05.262Z,15.94
2023-04-30T08:08:31.978Z,15.93
2023-04-30T08:10:58.740Z,16.02
2023-04-30T08:13:25.501Z,16.06
2023-04-30T08:15:52.206Z,16.26
2023-04-30T08:18:18.947Z,16.33
2023-04-30T08:20:45.764Z,16.38
2023-04-30T08:23:12.491Z,16.49
2023-04-30T08:25:39.195Z,16.36
2023-04-30T08:28:07.171Z,16.42
2023-04-30T08:30:34.000Z,16.52
2023-04-30T08:33:00.741Z,16.61
2023-04-30T08:35:29.829Z,16.83
2023-04-30T08:37:56.534Z,16.97
2023-04-30T08:40:33.724Z,17.21
2023-04-30T08:43:11.790Z,17.30
2023-04-30T08:45:38.532Z,17.23
2023-04-30T08:48:06.019Z,17.18
2023-04-30T08:50:32.799Z,17.18
2023-04-30T08:52:59.644Z,17.22
2023-04-30T08:55:30.156Z,17.32
2023-04-30T08:57:56.864Z,17.38
2023-04-30T09:00:23.629Z,17.48
2023-04-30T09:02:50.831Z,17.57
2023-04-30T09:05:17.582Z,17.53
2023-04-30T09:08:01.062Z,17.50
2023-04-30T09:10:32.824Z,17.42
2023-04-30T09:13:02.125Z,17.44
2023-04-30T09:15:29.933Z,17.61
2023-04-30T09:18:21.912Z,17.63
2023-04-30T09:21:01.333Z,17.66
2023-04-30T09:23:28.571Z,17.69
2023-04-30T09:25:55.634Z,17.76
2023-04-30T09:28:28.859Z,18.03
2023-04-30T09:30:59.409Z,18.07
2023-04-30T09:33:26.538Z,18.54
2023-04-30T09:35:53.283Z,18.92
2023-04-30T09:38:27.093Z,18.90
2023-04-30T09:40:53.833Z,18.79
2023-04-30T09:43:20.572Z,18.65
2023-04-30T09:45:49.914Z,18.52
2023-04-30T09:48:18.041Z,18.37
2023-04-30T09:50:48.012Z,18.47
2023-04-30T09:53:18.103Z,18.58
2023-04-30T09:55:45.436Z,18.48
2023-04-30T09:58:12.704Z,18.68
2023-04-30T10:00:40.127Z,18.80
2023-04-30T10:03:11.383Z,18.95
2023-04-30T10:05:41.386Z,19.12
2023-04-30T10:08:14.279Z,19.16
2023-04-30T10:10:41.755Z,18.90
2023-04-30T10:13:11.277Z,18.96
2023-04-30T10:15:46.274Z,18.94
2023-04-30T10:18:26.767Z,18.92
2023-04-30T10:20:54.477Z,19.03
2023-04-30T10:23:22.384Z,19.15
2023-04-30T10:25:49.510Z,18.84
2023-04-30T10:28:16.385Z,18.93
2023-04-30T10:30:43.864Z,18.76
2023-04-30T10:33:23.609Z,18.78
2023-04-30T10:35:57.791Z,18.74
2023-04-30T10:38:29.940Z,18.80
2023-04-30T10:41:04.043Z,18.84
2023-04-30T10:43:31.407Z,18.66
2023-04-30T10:45:58.953Z,18.65
2023-04-30T10:48:26.983Z,18.78
2023-04-30T10:50:56.712Z,18.82
2023-04-30T10:53:26.467Z,18.85
2023-04-30T10:56:09.334Z,18.90
2023-04-30T10:58:38.936Z,18.81
2023-04-30T11:01:12.247Z,18.91
2023-04-30T11:03:42.550Z,19.05
2023-04-30T11:06:13.085Z,19.10
2023-04-30T11:08:43.023Z,19.26
2023-04-30T11:11:11.008Z,19.39
2023-04-30T11:13:48.697Z,19.47
2023-04-30T11:16:20.359Z,19.66
2023-04-30T11:18:47.475Z,19.65
2023-04-30T11:21:14.355Z,19.59
2023-04-30T11:23:43.396Z,19.38
2023-04-30T11:26:10.545Z,19.36
2023-04-30T11:28:38.340Z,19.40
2023-04-30T11:31:05.732Z,19.53
2023-04-30T11:33:33.735Z,19.60
2023-04-30T11:36:01.635Z,19.70
2023-04-30T11:38:35.164Z,19.87
2023-04-30T11:41:02.733Z,20.02
2023-04-30T11:43:31.522Z,20.17
2023-04-30T11:46:12.201Z,20.24
2023-04-30T11:48:40.778Z,19.93
2023-04-30T11:51:24.736Z,19.74
2023-04-30T11:53:52.900Z,19.52
2023-04-30T11:56:24.973Z,19.57
2023-04-30T11:58:52.927Z,19.44
2023-04-30T12:01:21.320Z,19.47
2023-04-30T12:03:50.898Z,19.34
2023-04-30T12:06:25.170Z,19.38
2023-04-30T12:08:56.357Z,19.57
2023-04-30T12:11:26.005Z,19.67
2023-04-30T12:13:57.594Z,19.86
2023-04-30T12:16:25.856Z,20.10
2023-04-30T12:18:53.070Z,20.28
2023-04-30T12:21:21.697Z,20.30
2023-04-30T12:23:48.558Z,20.52
2023-04-30T12:26:15.296Z,20.59
2023-04-30T12:28:41.992Z,20.55
2023-04-30T12:31:08.845Z,20.64
2023-04-30T12:33:37.373Z,20.57
2023-04-30T12:36:04.313Z,20.30
2023-04-30T12:38:31.117Z,19.92
2023-04-30T12:40:58.001Z,19.81
2023-04-30T12:43:24.716Z,19.70
2023-04-30T12:45:53.376Z,19.71
2023-04-30T12:48:21.981Z,19.77
2023-04-30T12:51:10.272Z,19.88
2023-04-30T12:53:46.079Z,19.89
2023-04-30T12:56:17.131Z,19.75
2023-04-30T12:58:51.218Z,19.86
2023-04-30T13:01:20.616Z,19.77
2023-04-30T13:03:47.751Z,19.84
2023-04-30T13:06:14.612Z,19.95
2023-04-30T13:08:57.209Z,19.93
2023-04-30T13:11:26.648Z,20.00
2023-04-30T13:13:55.670Z,20.02
2023-04-30T13:16:23.198Z,19.85
2023-04-30T13:18:49.938Z,19.78
2023-04-30T13:21:16.651Z,19.73
2023-04-30T13:23:51.784Z,19.59
2023-04-30T13:26:21.542Z,19.71
2023-04-30T13:28:48.242Z,19.88
2023-04-30T13:31:15.047Z,20.06
2023-04-30T13:33:41.839Z,20.33
2023-04-30T13:36:08.542Z,20.62
2023-04-30T13:38:35.281Z,20.78
2023-04-30T13:41:01.986Z,20.87
2023-04-30T13:43:28.645Z,20.95
2023-04-30T13:45:55.437Z,20.85
2023-04-30T13:48:22.245Z,20.77
2023-04-30T13:50:49.040Z,20.71
2023-04-30T13:53:16.288Z,20.57
2023-04-30T13:55:43.022Z,20.66
2023-04-30T13:58:09.813Z,20.85
2023-04-30T14:00:36.568Z,21.03
2023-04-30T14:03:04.515Z,21.05
2023-04-30T14:05:33.130Z,21.37
2023-04-30T14:08:00.217Z,21.42
2023-04-30T14:10:27.270Z,21.22
2023-04-30T14:12:54.094Z,21.11
2023-04-30T14:15:21.513Z,20.78
2023-04-30T14:17:48.651Z,20.54
2023-04-30T14:20:15.465Z,20.23
2023-04-30T14:22:42.431Z,20.10
2023-04-30T14:25:09.764Z,19.95
2023-04-30T14:27:37.213Z,20.01
2023-04-30T14:30:04.456Z,19.94
2023-04-30T14:32:31.306Z,20.10
2023-04-30T14:34:58.136Z,20.18
2023-04-30T14:37:28.004Z,20.09
2023-04-30T14:39:54.977Z,20.08
2023-04-30T14:42:21.864Z,20.08
2023-04-30T14:44:48.544Z,20.16
2023-04-30T14:47:15.266Z,20.20
2023-04-30T14:49:41.998Z,20.15
2023-04-30T14:52:09.155Z,20.07
2023-04-30T14:54:35.946Z,20.01
2023-04-30T14:57:04.275Z,20.11
2023-04-30T14:59:31.692Z,20.01
2023-04-30T15:01:58.677Z,20.02
2023-04-30T15:04:25.475Z,20.07
2023-04-30T15:06:52.375Z,20.06
2023-04-30T15:09:19.417Z,19.86
2023-04-30T15:11:46.177Z,19.81
2023-04-30T15:14:12.955Z,19.66
2023-04-30T15:16:40.324Z,19.71
2023-04-30T15:19:07.809Z,19.68
2023-04-30T15:21:34.636Z,19.68
2023-04-30T15:24:01.482Z,19.68
2023-04-30T15:26:29.009Z,19.77
2023-04-30T15:28:57.039Z,19.77
2023-04-30T15:31:24.405Z,19.77
2023-04-30T15:33:51.955Z,19.53
2023-04-30T15:36:19.289Z,19.45
2023-04-30T15:38:46.079Z,19.35
2023-04-30T15:41:12.766Z,19.09
2023-04-30T15:43:39.701Z,19.03
2023-04-30T15:46:06.478Z,19.11
2023-04-30T15:48:33.286Z,19.18
2023-04-30T15:51:00.310Z,19.03
2023-04-30T15:53:27.043Z,19.20
2023-04-30T15:55:54.096Z,19.33
2023-04-30T15:58:20.855Z,19.38
2023-04-30T16:00:47.740Z,19.18
2023-04-30T16:03:14.554Z,19.29
2023-04-30T16:05:41.944Z,19.23
2023-04-30T16:08:12.373Z,19.25
2023-04-30T16:10:39.223Z,19.24
2023-04-30T16:13:05.958Z,19.26
2023-04-30T16:15:33.206Z,19.25
2023-04-30T16:17:59.996Z,19.19
2023-04-30T16:20:27.523Z,19.10
2023-04-30T16:22:54.975Z,19.12
2023-04-30T16:25:22.366Z,19.05
2023-04-30T16:27:49.988Z,19.05
2023-04-30T16:30:16.756Z,19.01
2023-04-30T16:32:44.514Z,19.06
2023-04-30T16:35:11.454Z,18.97
2023-04-30T16:37:38.181Z,18.92
2023-04-30T16:40:06.599Z,18.95
2023-04-30T16:42:34.050Z,18.86
2023-04-30T16:45:00.770Z,18.73
2023-04-30T16:47:27.701Z,18.63
2023-04-30T16:49:55.935Z,18.62
2023-04-30T16:52:22.898Z,18.54
2023-04-30T16:54:49.626Z,18.48
2023-04-30T16:57:16.826Z,18.53
2023-04-30T16:59:43.534Z,18.54
2023-04-30T17:02:10.349Z,18.35
2023-04-30T17:04:37.270Z,18.27
2023-04-30T17:07:04.038Z,18.30
2023-04-30T17:09:31.448Z,18.19
2023-04-30T17:11:58.177Z,18.16
2023-04-30T17:14:24.995Z,17.98
2023-04-30T17:16:51.659Z,17.97
2023-04-30T17:19:18.333Z,17.87
2023-04-30T17:21:45.067Z,17.86
2023-04-30T17:24:11.928Z,17.77
2023-04-30T17:26:38.614Z,17.72
2023-04-30T17:29:06.356Z,17.76
2023-04-30T17:31:33.383Z,17.77
2023-04-30T17:34:02.818Z,17.75
2023-04-30T17:36:30.517Z,17.72
2023-04-30T17:38:57.269Z,17.67
2023-04-30T17:41:24.206Z,17.63
2023-04-30T17:43:51.867Z,17.63
2023-04-30T17:46:18.612Z,17.56
2023-04-30T17:48:45.339Z,17.45
2023-04-30T17:51:12.137Z,17.48
2023-04-30T17:53:38.851Z,17.41
2023-04-30T17:56:05.886Z,17.39
2023-04-30T17:58:32.856Z,17.36
2023-04-30T18:01:01.806Z,17.32
2023-04-30T18:03:28.935Z,17.27
2023-04-30T18:05:55.783Z,17.19
2023-04-30T18:08:22.601Z,17.09
2023-04-30T18:10:49.835Z,17.04
2023-04-30T18:13:16.564Z,17.01
2023-04-30T18:15:43.318Z,16.96
2023-04-30T18:18:10.150Z,16.89
2023-04-30T18:20:37.158Z,16.83
2023-04-30T18:23:05.911Z,16.77
2023-04-30T18:25:34.522Z,16.68
2023-04-30T18:28:01.585Z,16.64
2023-04-30T18:30:28.311Z,16.65
2023-04-30T18:32:55.115Z,16.57
2023-04-30T18:35:22.343Z,16.49
2023-04-30T18:37:49.806Z,16.44
2023-04-30T18:40:17.433Z,16.35
2023-04-30T18:42:44.276Z,16.30
2023-04-30T18:45:11.995Z,16.24
2023-04-30T18:47:38.800Z,16.18
2023-04-30T18:50:07.783Z,16.15
2023-04-30T18:52:34.544Z,16.02
2023-04-30T18:55:01.590Z,16.00
2023-04-30T18:57:28.970Z,15.93
2023-04-30T18:59:56.100Z,15.91
2023-04-30T19:02:23.229Z,15.86
2023-04-30T19:04:50.859Z,15.76
2023-04-30T19:07:17.651Z,15.67
2023-04-30T19:09:45.616Z,15.65
2023-04-30T19:12:12.400Z,15.63
2023-04-30T19:14:39.147Z,15.59
2023-04-30T19:17:06.027Z,15.55
2023-04-30T19:19:33.146Z,15.51
2023-04-30T19:21:59.865Z,15.48
2023-04-30T19:24:26.634Z,15.44
2023-04-30T19:26:53.392Z,15.40
2023-04-30T19:29:20.269Z,15.37
2023-04-30T19:31:47.146Z,15.41
2023-04-30T19:34:16.737Z,15.41
2023-04-30T19:36:44.285Z,15.42
2023-04-30T19:39:11.980Z,15.38
2023-04-30T19:41:39.588Z,15.35
2023-04-30T19:44:07.894Z,15.32
2023-04-30T19:46:35.028Z,15.30
2023-04-30T19:49:01.787Z,15.26
2023-04-30T19:51:28.610Z,15.26
2023-04-30T19:53:55.733Z,15.20
2023-04-30T19:56:22.573Z,15.13
2023-04-30T19:58:50.044Z,15.06
2023-04-30T20:01:17.543Z,15.06
2023-04-30T20:03:44.859Z,14.99
2023-04-30T20:06:12.379Z,14.93
2023-04-30T20:08:39.382Z,14.89
2023-04-30T20:11:06.219Z,14.86
2023-04-30T20:13:33.117Z,14.82
2023-04-30T20:15:59.901Z,14.79
2023-04-30T20:18:26.716Z,14.73
2023-04-30T20:20:53.733Z,14.71
2023-04-30T20:23:20.804Z,14.69
2023-04-30T20:25:48.081Z,14.64
2023-04-30T20:28:16.004Z,14.62
2023-04-30T20:30:43.269Z,14.56
2023-04-30T20:33:13.625Z,14.54
2023-04-30T20:35:41.879Z,14.52
2023-04-30T20:38:08.762Z,14.49
2023-04-30T20:40:35.835Z,14.45
2023-04-30T20:43:02.652Z,14.44
2023-04-30T20:45:30.358Z,14.41
2023-04-30T20:47:57.240Z,14.39
2023-04-30T20:50:24.018Z,14.40
2023-04-30T20:52:50.715Z,14.34
2023-04-30T20:55:17.587Z,14.37
2023-04-30T20:57:44.291Z,14.37
2023-04-30T21:00:12.212Z,14.35
2023-04-30T21:02:39.382Z,14.33
2023-04-30T21:05:06.963Z,14.26
2023-04-30T21:07:37.462Z,14.25
2023-04-30T21:10:08.541Z,14.21
2023-04-30T21:12:35.754Z,14.20
2023-04-30T21:15:03.212Z,14.19
2023-04-30T21:17:30.059Z,14.14
2023-04-30T21:19:57.400Z,14.03
2023-04-30T21:22:24.766Z,14.02
2023-04-30T21:24:54.781Z,13.93
2023-04-30T21:27:21.791Z,13.91
2023-04-30T21:29:48.657Z,13.90
2023-04-30T21:32:15.389Z,13.85
2023-04-30T21:34:42.272Z,13.82
2023-04-30T21:37:09.001Z,13.73
2023-04-30T21:39:35.867Z,13.74
2023-04-30T21:42:04.689Z,13.77
2023-04-30T21:44:32.952Z,13.73
2023-04-30T21:47:00.173Z,13.71
2023-04-30T21:49:27.249Z,13.67
2023-04-30T21:51:54.072Z,13.66
2023-04-30T21:54:20.925Z,13.59
2023-04-30T21:56:48.192Z,13.60
2023-04-30T21:59:14.890Z,13.57
2023-04-30T22:01:41.635Z,13.51
2023-04-30T22:04:08.992Z,13.53
2023-04-30T22:06:35.995Z,13.47
2023-04-30T22:09:02.755Z,13.45
2023-04-30T22:11:29.616Z,13.44
2023-04-30T22:13:56.310Z,13.38
2023-04-30T22:16:23.120Z,13.34
2023-04-30T22:18:49.927Z,13.27
2023-04-30T22:21:16.645Z,13.30
2023-04-30T22:23:43.583Z,13.29
2023-04-30T22:26:11.545Z,13.26
2023-04-30T22:28:38.451Z,13.29
2023-04-30T22:31:05.321Z,13.28
2023-04-30T22:33:36.609Z,13.29
2023-04-30T22:36:06.475Z,13.25
2023-04-30T22:38:33.894Z,13.22
2023-04-30T22:41:01.371Z,13.21
2023-04-30T22:43:30.837Z,13.20
2023-04-30T22:45:58.855Z,13.27
2023-04-30T22:48:27.821Z,13.23
2023-04-30T22:50:55.679Z,13.24
2023-04-30T22:53:22.904Z,13.22
2023-04-30T22:55:50.116Z,13.23
2023-04-30T22:58:17.634Z,13.22
2023-04-30T23:00:44.486Z,13.16
2023-04-30T23:03:11.532Z,13.11
2023-04-30T23:05:38.894Z,13.06
2023-04-30T23:08:05.632Z,13.07
2023-04-30T23:10:32.316Z,13.04
2023-04-30T23:12:59.244Z,13.03
2023-04-30T23:15:26.408Z,13.02
2023-04-30T23:17:54.709Z,12.93
2023-04-30T23:20:23.045Z,12.90
2023-04-30T23:22:50.329Z,12.89
2023-04-30T23:25:17.247Z,12.84
2023-04-30T23:27:45.228Z,12.80
2023-04-30T23:30:12.228Z,12.74
2023-04-30T23:32:39.123Z,12.74
2023-04-30T23:35:07.998Z,12.63
2023-04-30T23:37:35.296Z,12.71
2023-04-30T23:40:02.331Z,12.73
2023-04-30T23:42:29.237Z,12.69
2023-04-30T23:44:55.904Z,12.71
2023-04-30T23:47:22.807Z,12.72
2023-04-30T23:49:49.693Z,12.69
2023-04-30T23:52:16.518Z,12.68
2023-04-30T23:54:43.364Z,12.72
2023-04-30T23:57:10.443Z,12.70
2023-04-30T23:59:37.238Z,12.69
